sensor_id;sensor_type;location;lat;lon;timestamp;pressure;altitude;pressure_sealevel;temperature;humidity
13974;BME280;7060;43.770;4.008;2022-10-16T00:01:26;101138.53;;;17.02;80.95
13974;BME280;7060;43.770;4.008;2022-10-16T00:03:55;101136.44;;;17.12;80.90
13974;BME280;7060;43.770;4.008;2022-10-16T00:06:26;101151.09;;;17.17;80.69
13974;BME280;7060;43.770;4.008;2022-10-16T00:08:55;101151.28;;;17.16;80.68
13974;BME280;7060;43.770;4.008;2022-10-16T00:11:26;101152.13;;;17.16;80.72
13974;BME280;7060;43.770;4.008;2022-10-16T00:13:57;101147.19;;;17.20;80.87
13974;BME280;7060;43.770;4.008;2022-10-16T00:16:25;101148.03;;;17.20;80.84
13974;BME280;7060;43.770;4.008;2022-10-16T00:18:54;101146.84;;;17.23;81.14
13974;BME280;7060;43.770;4.008;2022-10-16T00:21:26;101148.69;;;17.22;81.04
13974;BME280;7060;43.770;4.008;2022-10-16T00:23:57;101149.53;;;17.23;81.23
13974;BME280;7060;43.770;4.008;2022-10-16T00:26:27;101146.00;;;17.22;81.33
13974;BME280;7060;43.770;4.008;2022-10-16T00:28:56;101143.97;;;17.24;81.31
13974;BME280;7060;43.770;4.008;2022-10-16T00:31:25;101154.78;;;17.24;81.53
13974;BME280;7060;43.770;4.008;2022-10-16T00:33:54;101147.69;;;17.23;81.54
13974;BME280;7060;43.770;4.008;2022-10-16T00:36:24;101153.94;;;17.24;81.47
13974;BME280;7060;43.770;4.008;2022-10-16T00:38:56;101144.84;;;17.17;81.35
13974;BME280;7060;43.770;4.008;2022-10-16T00:41:31;101161.56;;;17.20;81.39
13974;BME280;7060;43.770;4.008;2022-10-16T00:44:01;101149.91;;;17.20;81.49
13974;BME280;7060;43.770;4.008;2022-10-16T00:46:34;101163.22;;;17.21;81.53
13974;BME280;7060;43.770;4.008;2022-10-16T00:49:05;101160.34;;;17.23;81.36
13974;BME280;7060;43.770;4.008;2022-10-16T00:51:36;101165.75;;;17.23;81.27
13974;BME280;7060;43.770;4.008;2022-10-16T00:54:09;101154.78;;;17.24;81.36
13974;BME280;7060;43.770;4.008;2022-10-16T00:56:39;101160.19;;;17.24;81.47
13974;BME280;7060;43.770;4.008;2022-10-16T00:59:13;101160.00;;;17.26;81.38
13974;BME280;7060;43.770;4.008;2022-10-16T01:01:43;101157.13;;;17.27;81.52
13974;BME280;7060;43.770;4.008;2022-10-16T01:04:11;101158.81;;;17.29;81.45
13974;BME280;7060;43.770;4.008;2022-10-16T01:06:45;101157.59;;;17.31;81.48
13974;BME280;7060;43.770;4.008;2022-10-16T01:09:18;101157.78;;;17.30;81.87
13974;BME280;7060;43.770;4.008;2022-10-16T01:11:57;101165.72;;;17.31;81.67
13974;BME280;7060;43.770;4.008;2022-10-16T01:14:36;101166.34;;;17.33;81.65
13974;BME280;7060;43.770;4.008;2022-10-16T01:17:11;101166.34;;;17.33;81.77
13974;BME280;7060;43.770;4.008;2022-10-16T01:19:51;101173.06;;;17.37;81.46
13974;BME280;7060;43.770;4.008;2022-10-16T01:22:34;101172.06;;;17.38;81.34
13974;BME280;7060;43.770;4.008;2022-10-16T01:25:11;101163.94;;;17.38;81.48
13974;BME280;7060;43.770;4.008;2022-10-16T01:27:43;101040.50;;;16.62;81.23
13974;BME280;7060;43.770;4.008;2022-10-16T01:30:17;101170.88;;;17.41;81.28
13974;BME280;7060;43.770;4.008;2022-10-16T01:32:50;101167.81;;;17.44;81.42
13974;BME280;7060;43.770;4.008;2022-10-16T01:35:23;101169.66;;;17.43;81.54
13974;BME280;7060;43.770;4.008;2022-10-16T01:37:57;101168.47;;;17.46;81.42
13974;BME280;7060;43.770;4.008;2022-10-16T01:40:27;101161.88;;;17.48;81.42
13974;BME280;7060;43.770;4.008;2022-10-16T01:43:01;101161.69;;;17.50;81.20
13974;BME280;7060;43.770;4.008;2022-10-16T01:45:31;101158.13;;;17.49;81.20
13974;BME280;7060;43.770;4.008;2022-10-16T01:48:02;101157.13;;;17.50;81.24
13974;BME280;7060;43.770;4.008;2022-10-16T01:50:37;101154.22;;;17.52;81.09
13974;BME280;7060;43.770;4.008;2022-10-16T01:53:09;101149.84;;;17.51;81.34
13974;BME280;7060;43.770;4.008;2022-10-16T01:55:44;101155.25;;;17.51;81.09
13974;BME280;7060;43.770;4.008;2022-10-16T01:58:15;101158.97;;;17.50;81.29
13974;BME280;7060;43.770;4.008;2022-10-16T02:00:45;101152.72;;;17.49;81.46
13974;BME280;7060;43.770;4.008;2022-10-16T02:03:16;101151.91;;;17.49;81.25
13974;BME280;7060;43.770;4.008;2022-10-16T02:05:48;101149.19;;;17.49;81.59
13974;BME280;7060;43.770;4.008;2022-10-16T02:08:18;101150.69;;;17.51;81.66
13974;BME280;7060;43.770;4.008;2022-10-16T02:10:47;101142.41;;;17.53;81.59
13974;BME280;7060;43.770;4.008;2022-10-16T02:13:22;101112.59;;;17.38;81.62
13974;BME280;7060;43.770;4.008;2022-10-16T02:15:52;101136.81;;;17.54;81.78
13974;BME280;7060;43.770;4.008;2022-10-16T02:18:20;101138.31;;;17.57;81.62
13974;BME280;7060;43.770;4.008;2022-10-16T02:20:53;101137.16;;;17.59;81.56
13974;BME280;7060;43.770;4.008;2022-10-16T02:23:29;101142.34;;;17.61;81.36
13974;BME280;7060;43.770;4.008;2022-10-16T02:26:04;101147.56;;;17.63;81.42
13974;BME280;7060;43.770;4.008;2022-10-16T02:28:38;101113.56;;;17.45;81.10
13974;BME280;7060;43.770;4.008;2022-10-16T02:31:11;101145.16;;;17.68;81.26
13974;BME280;7060;43.770;4.008;2022-10-16T02:33:42;101147.88;;;17.68;81.06
13974;BME280;7060;43.770;4.008;2022-10-16T02:36:12;101143.50;;;17.67;81.21
13974;BME280;7060;43.770;4.008;2022-10-16T02:38:41;101138.91;;;17.67;81.43
13974;BME280;7060;43.770;4.008;2022-10-16T02:41:09;101144.34;;;17.67;81.38
13974;BME280;7060;43.770;4.008;2022-10-16T02:43:39;101146.84;;;17.69;81.49
13974;BME280;7060;43.770;4.008;2022-10-16T02:46:08;101141.81;;;17.66;81.24
13974;BME280;7060;43.770;4.008;2022-10-16T02:48:36;101146.66;;;17.70;81.29
13974;BME280;7060;43.770;4.008;2022-10-16T02:51:06;101141.44;;;17.69;81.54
13974;BME280;7060;43.770;4.008;2022-10-16T02:53:34;101140.25;;;17.71;81.36
13974;BME280;7060;43.770;4.008;2022-10-16T02:56:02;101136.69;;;17.71;81.75
13974;BME280;7060;43.770;4.008;2022-10-16T02:58:31;101143.97;;;17.70;82.00
13974;BME280;7060;43.770;4.008;2022-10-16T03:01:01;101147.50;;;17.71;81.79
13974;BME280;7060;43.770;4.008;2022-10-16T03:03:29;101139.22;;;17.72;81.85
13974;BME280;7060;43.770;4.008;2022-10-16T03:05:57;101141.91;;;17.72;82.04
13974;BME280;7060;43.770;4.008;2022-10-16T03:08:26;101143.44;;;17.75;81.95
13974;BME280;7060;43.770;4.008;2022-10-16T03:10:54;101146.78;;;17.77;81.93
13974;BME280;7060;43.770;4.008;2022-10-16T03:13:22;101144.94;;;17.77;81.80
13974;BME280;7060;43.770;4.008;2022-10-16T03:15:51;101149.13;;;17.80;81.85
13974;BME280;7060;43.770;4.008;2022-10-16T03:18:20;101149.78;;;17.82;81.76
13974;BME280;7060;43.770;4.008;2022-10-16T03:20:49;101148.13;;;17.81;81.79
13974;BME280;7060;43.770;4.008;2022-10-16T03:23:17;101151.28;;;17.84;81.52
13974;BME280;7060;43.770;4.008;2022-10-16T03:25:45;101156.88;;;17.83;81.52
13974;BME280;7060;43.770;4.008;2022-10-16T03:28:14;101159.59;;;17.83;81.47
13974;BME280;7060;43.770;4.008;2022-10-16T03:30:43;101162.97;;;17.85;81.60
13974;BME280;7060;43.770;4.008;2022-10-16T03:33:11;101174.78;;;17.84;81.32
13974;BME280;7060;43.770;4.008;2022-10-16T03:35:41;101170.88;;;17.86;80.91
13974;BME280;7060;43.770;4.008;2022-10-16T03:38:09;101175.47;;;17.86;80.85
13974;BME280;7060;43.770;4.008;2022-10-16T03:40:37;101180.47;;;17.89;80.64
13974;BME280;7060;43.770;4.008;2022-10-16T03:43:06;101175.91;;;17.89;80.50
13974;BME280;7060;43.770;4.008;2022-10-16T03:45:34;101181.50;;;17.88;80.38
13974;BME280;7060;43.770;4.008;2022-10-16T03:48:03;101178.59;;;17.89;80.38
13974;BME280;7060;43.770;4.008;2022-10-16T03:50:31;101173.38;;;17.88;80.38
13974;BME280;7060;43.770;4.008;2022-10-16T03:53:01;101171.34;;;17.90;80.16
13974;BME280;7060;43.770;4.008;2022-10-16T03:55:29;101175.06;;;17.89;80.05
13974;BME280;7060;43.770;4.008;2022-10-16T03:57:57;101177.59;;;17.90;79.91
13974;BME280;7060;43.770;4.008;2022-10-16T04:00:26;101184.50;;;17.93;79.95
13974;BME280;7060;43.770;4.008;2022-10-16T04:02:54;101188.88;;;17.94;79.60
13974;BME280;7060;43.770;4.008;2022-10-16T04:05:23;101189.53;;;17.96;79.53
13974;BME280;7060;43.770;4.008;2022-10-16T04:07:51;101187.69;;;17.97;79.58
13974;BME280;7060;43.770;4.008;2022-10-16T04:10:20;101182.09;;;17.98;79.22
13974;BME280;7060;43.770;4.008;2022-10-16T04:12:49;101190.22;;;17.98;79.09
13974;BME280;7060;43.770;4.008;2022-10-16T04:15:17;101191.88;;;17.99;79.13
13974;BME280;7060;43.770;4.008;2022-10-16T04:17:45;101196.47;;;17.99;79.24
13974;BME280;7060;43.770;4.008;2022-10-16T04:20:14;101198.50;;;17.97;79.03
13974;BME280;7060;43.770;4.008;2022-10-16T04:22:43;101169.38;;;17.84;79.14
13974;BME280;7060;43.770;4.008;2022-10-16T04:25:11;101193.94;;;17.97;79.08
13974;BME280;7060;43.770;4.008;2022-10-16T04:27:41;101192.91;;;17.98;78.94
13974;BME280;7060;43.770;4.008;2022-10-16T04:30:12;101197.66;;;17.96;79.04
13974;BME280;7060;43.770;4.008;2022-10-16T04:32:40;101196.63;;;17.97;78.92
13974;BME280;7060;43.770;4.008;2022-10-16T04:35:09;101194.13;;;17.96;78.78
13974;BME280;7060;43.770;4.008;2022-10-16T04:37:37;101200.38;;;17.96;78.97
13974;BME280;7060;43.770;4.008;2022-10-16T04:40:06;101198.31;;;17.98;79.06
13974;BME280;7060;43.770;4.008;2022-10-16T04:42:34;101206.44;;;17.98;78.86
13974;BME280;7060;43.770;4.008;2022-10-16T04:45:05;101201.69;;;18.00;78.80
13974;BME280;7060;43.770;4.008;2022-10-16T04:47:40;101203.72;;;17.98;79.13
13974;BME280;7060;43.770;4.008;2022-10-16T04:50:09;101209.97;;;17.99;79.02
13974;BME280;7060;43.770;4.008;2022-10-16T04:52:37;101209.81;;;18.00;79.19
13974;BME280;7060;43.770;4.008;2022-10-16T04:55:06;101208.59;;;18.03;79.02
13974;BME280;7060;43.770;4.008;2022-10-16T04:57:34;101211.97;;;18.05;79.04
13974;BME280;7060;43.770;4.008;2022-10-16T05:00:05;101217.38;;;18.05;78.93
13974;BME280;7060;43.770;4.008;2022-10-16T05:02:35;101213.81;;;18.04;78.99
13974;BME280;7060;43.770;4.008;2022-10-16T05:05:03;101216.34;;;18.06;78.85
13974;BME280;7060;43.770;4.008;2022-10-16T05:07:32;101234.44;;;18.05;79.15
13974;BME280;7060;43.770;4.008;2022-10-16T05:10:00;101233.44;;;18.06;79.09
13974;BME280;7060;43.770;4.008;2022-10-16T05:12:29;101233.06;;;18.09;78.88
13974;BME280;7060;43.770;4.008;2022-10-16T05:14:58;101235.41;;;18.12;78.50
13974;BME280;7060;43.770;4.008;2022-10-16T05:17:27;101243.34;;;18.14;78.55
13974;BME280;7060;43.770;4.008;2022-10-16T05:19:56;101237.09;;;18.13;78.71
13974;BME280;7060;43.770;4.008;2022-10-16T05:22:24;101245.84;;;18.15;78.58
13974;BME280;7060;43.770;4.008;2022-10-16T05:24:52;101223.16;;;18.16;78.58
13974;BME280;7060;43.770;4.008;2022-10-16T05:27:22;101247.53;;;18.16;78.61
13974;BME280;7060;43.770;4.008;2022-10-16T05:29:50;101243.34;;;18.14;78.67
13974;BME280;7060;43.770;4.008;2022-10-16T05:32:19;101246.22;;;18.12;78.56
13974;BME280;7060;43.770;4.008;2022-10-16T05:34:50;101251.66;;;18.12;78.65
13974;BME280;7060;43.770;4.008;2022-10-16T05:37:19;101259.09;;;18.10;78.64
13974;BME280;7060;43.770;4.008;2022-10-16T05:39:47;101259.09;;;18.10;78.69
13974;BME280;7060;43.770;4.008;2022-10-16T05:42:16;101271.78;;;18.10;78.72
13974;BME280;7060;43.770;4.008;2022-10-16T05:44:44;101266.56;;;18.08;78.54
13974;BME280;7060;43.770;4.008;2022-10-16T05:47:14;101277.38;;;18.08;78.69
13974;BME280;7060;43.770;4.008;2022-10-16T05:49:42;101270.28;;;18.07;78.38
13974;BME280;7060;43.770;4.008;2022-10-16T05:52:12;101281.94;;;18.08;78.09
13974;BME280;7060;43.770;4.008;2022-10-16T05:54:42;101286.53;;;18.07;78.05
13974;BME280;7060;43.770;4.008;2022-10-16T05:57:11;101290.59;;;18.03;78.09
13974;BME280;7060;43.770;4.008;2022-10-16T05:59:39;101298.19;;;18.08;78.04
13974;BME280;7060;43.770;4.008;2022-10-16T06:02:09;101296.16;;;18.10;77.62
13974;BME280;7060;43.770;4.008;2022-10-16T06:04:40;101300.34;;;18.12;77.43
13974;BME280;7060;43.770;4.008;2022-10-16T06:07:11;101306.13;;;18.09;77.74
13974;BME280;7060;43.770;4.008;2022-10-16T06:09:41;101304.25;;;18.10;77.50
13974;BME280;7060;43.770;4.008;2022-10-16T06:12:09;101300.72;;;18.09;77.79
13974;BME280;7060;43.770;4.008;2022-10-16T06:14:37;101303.41;;;18.09;77.46
13974;BME280;7060;43.770;4.008;2022-10-16T06:17:06;101317.31;;;18.06;77.77
13974;BME280;7060;43.770;4.008;2022-10-16T06:19:35;101315.44;;;18.07;77.84
13974;BME280;7060;43.770;4.008;2022-10-16T06:22:03;101311.72;;;18.08;77.80
13974;BME280;7060;43.770;4.008;2022-10-16T06:24:33;101313.03;;;18.12;77.72
13974;BME280;7060;43.770;4.008;2022-10-16T06:27:03;101309.56;;;18.03;77.86
13974;BME280;7060;43.770;4.008;2022-10-16T06:29:32;101318.47;;;18.12;77.82
13974;BME280;7060;43.770;4.008;2022-10-16T06:32:01;101314.91;;;18.11;77.67
13974;BME280;7060;43.770;4.008;2022-10-16T06:34:30;101321.44;;;18.17;77.76
13974;BME280;7060;43.770;4.008;2022-10-16T06:36:58;101328.53;;;18.18;77.57
13974;BME280;7060;43.770;4.008;2022-10-16T06:39:27;101327.69;;;18.17;77.76
13974;BME280;7060;43.770;4.008;2022-10-16T06:41:57;101330.41;;;18.17;77.92
13974;BME280;7060;43.770;4.008;2022-10-16T06:44:35;101334.13;;;18.16;78.10
13974;BME280;7060;43.770;4.008;2022-10-16T06:47:03;101324.97;;;18.17;78.00
13974;BME280;7060;43.770;4.008;2022-10-16T06:49:31;101330.03;;;18.20;77.96
13974;BME280;7060;43.770;4.008;2022-10-16T06:52:00;101331.38;;;18.24;77.83
13974;BME280;7060;43.770;4.008;2022-10-16T06:54:29;101323.53;;;18.30;77.86
13974;BME280;7060;43.770;4.008;2022-10-16T06:57:09;101321.13;;;18.35;77.67
13974;BME280;7060;43.770;4.008;2022-10-16T06:59:38;101304.53;;;18.38;77.33
13974;BME280;7060;43.770;4.008;2022-10-16T07:02:10;101305.75;;;18.35;76.90
13974;BME280;7060;43.770;4.008;2022-10-16T07:04:39;101304.06;;;18.34;77.00
13974;BME280;7060;43.770;4.008;2022-10-16T07:07:08;101313.03;;;18.35;77.10
13974;BME280;7060;43.770;4.008;2022-10-16T07:09:36;101320.28;;;18.34;77.02
13974;BME280;7060;43.770;4.008;2022-10-16T07:12:05;101320.78;;;18.38;76.65
13974;BME280;7060;43.770;4.008;2022-10-16T07:14:35;101320.50;;;18.47;76.45
13974;BME280;7060;43.770;4.008;2022-10-16T07:17:04;101330.81;;;18.52;75.96
13974;BME280;7060;43.770;4.008;2022-10-16T07:19:32;101337.31;;;18.66;75.47
13974;BME280;7060;43.770;4.008;2022-10-16T07:22:01;101329.75;;;18.76;74.91
13974;BME280;7060;43.770;4.008;2022-10-16T07:24:29;101349.28;;;19.01;74.95
13974;BME280;7060;43.770;4.008;2022-10-16T07:26:58;101342.00;;;19.31;73.77
13974;BME280;7060;43.770;4.008;2022-10-16T07:29:27;101340.69;;;19.56;73.00
13974;BME280;7060;43.770;4.008;2022-10-16T07:31:57;101361.56;;;19.91;72.88
13974;BME280;7060;43.770;4.008;2022-10-16T07:34:25;101356.97;;;20.13;71.55
13974;BME280;7060;43.770;4.008;2022-10-16T07:36:54;101367.88;;;20.35;69.68
13974;BME280;7060;43.770;4.008;2022-10-16T07:39:23;101362.38;;;20.49;68.37
13974;BME280;7060;43.770;4.008;2022-10-16T07:41:51;101373.25;;;20.49;68.25
13974;BME280;7060;43.770;4.008;2022-10-16T07:44:19;101376.59;;;20.51;68.01
13974;BME280;7060;43.770;4.008;2022-10-16T07:46:48;101384.69;;;20.45;67.81
13974;BME280;7060;43.770;4.008;2022-10-16T07:49:17;101390.63;;;20.34;67.58
13974;BME280;7060;43.770;4.008;2022-10-16T07:51:46;101391.44;;;20.27;68.32
13974;BME280;7060;43.770;4.008;2022-10-16T07:54:14;101391.81;;;20.24;68.38
13974;BME280;7060;43.770;4.008;2022-10-16T07:56:42;101407.78;;;20.19;68.56
13974;BME280;7060;43.770;4.008;2022-10-16T07:59:11;101411.28;;;20.13;68.27
13974;BME280;7060;43.770;4.008;2022-10-16T08:01:39;101421.63;;;20.03;68.52
13974;BME280;7060;43.770;4.008;2022-10-16T08:04:09;101423.69;;;20.01;68.86
13974;BME280;7060;43.770;4.008;2022-10-16T08:06:40;101425.94;;;19.98;68.96
13974;BME280;7060;43.770;4.008;2022-10-16T08:09:08;101439.41;;;19.91;68.98
13974;BME280;7060;43.770;4.008;2022-10-16T08:11:37;101444.19;;;19.89;68.81
13974;BME280;7060;43.770;4.008;2022-10-16T08:14:05;101450.38;;;19.83;69.07
13974;BME280;7060;43.770;4.008;2022-10-16T08:16:33;101453.84;;;19.77;69.20
13974;BME280;7060;43.770;4.008;2022-10-16T08:19:02;101460.50;;;19.74;69.59
13974;BME280;7060;43.770;4.008;2022-10-16T08:21:30;101465.09;;;19.74;69.92
13974;BME280;7060;43.770;4.008;2022-10-16T08:24:00;101476.78;;;19.74;70.59
13974;BME280;7060;43.770;4.008;2022-10-16T08:26:28;101478.84;;;19.72;70.30
13974;BME280;7060;43.770;4.008;2022-10-16T08:28:56;101471.25;;;19.68;70.23
13974;BME280;7060;43.770;4.008;2022-10-16T08:31:25;101478.56;;;19.67;70.11
13974;BME280;7060;43.770;4.008;2022-10-16T08:33:54;101477.06;;;19.65;70.10
13974;BME280;7060;43.770;4.008;2022-10-16T08:36:22;101477.59;;;19.60;70.21
13974;BME280;7060;43.770;4.008;2022-10-16T08:38:51;101492.84;;;19.61;70.42
13974;BME280;7060;43.770;4.008;2022-10-16T08:44:35;101502.13;;;19.67;70.41
13974;BME280;7060;43.770;4.008;2022-10-16T08:47:13;101499.50;;;19.73;70.91
13974;BME280;7060;43.770;4.008;2022-10-16T08:49:55;101508.13;;;19.77;70.58
13974;BME280;7060;43.770;4.008;2022-10-16T08:52:25;101505.41;;;19.77;70.82
13974;BME280;7060;43.770;4.008;2022-10-16T08:54:57;101510.38;;;19.73;70.32
13974;BME280;7060;43.770;4.008;2022-10-16T08:57:26;101502.03;;;19.75;70.63
13974;BME280;7060;43.770;4.008;2022-10-16T08:59:59;101513.53;;;19.77;70.56
13974;BME280;7060;43.770;4.008;2022-10-16T09:02:32;101516.25;;;19.77;70.52
13974;BME280;7060;43.770;4.008;2022-10-16T09:07:57;101524.00;;;19.80;70.79
13974;BME280;7060;43.770;4.008;2022-10-16T09:10:42;101522.34;;;19.79;70.78
13974;BME280;7060;43.770;4.008;2022-10-16T09:13:20;101529.44;;;19.80;70.66
13974;BME280;7060;43.770;4.008;2022-10-16T09:15:58;101530.28;;;19.80;71.23
13974;BME280;7060;43.770;4.008;2022-10-16T09:18:33;101540.69;;;19.77;71.29
13974;BME280;7060;43.770;4.008;2022-10-16T09:21:09;101533.56;;;19.76;71.88
13974;BME280;7060;43.770;4.008;2022-10-16T09:23:39;101531.88;;;19.75;72.67
13974;BME280;7060;43.770;4.008;2022-10-16T09:26:12;101530.19;;;19.74;73.36
13974;BME280;7060;43.770;4.008;2022-10-16T09:28:42;101527.47;;;19.74;73.79
13974;BME280;7060;43.770;4.008;2022-10-16T09:31:15;101533.75;;;19.74;73.97
13974;BME280;7060;43.770;4.008;2022-10-16T09:33:50;101524.78;;;19.74;74.36
13974;BME280;7060;43.770;4.008;2022-10-16T09:36:21;101527.38;;;19.67;74.54
13974;BME280;7060;43.770;4.008;2022-10-16T09:38:49;101527.56;;;19.66;74.54
13974;BME280;7060;43.770;4.008;2022-10-16T09:41:22;101532.81;;;19.67;74.54
13974;BME280;7060;43.770;4.008;2022-10-16T09:43:55;101532.63;;;19.69;75.47
13974;BME280;7060;43.770;4.008;2022-10-16T09:46:29;101523.75;;;19.75;75.61
13974;BME280;7060;43.770;4.008;2022-10-16T09:48:59;101517.66;;;19.73;74.99
13974;BME280;7060;43.770;4.008;2022-10-16T09:51:30;101433.28;;;19.38;74.37
13974;BME280;7060;43.770;4.008;2022-10-16T09:54:00;101522.44;;;20.00;75.06
13974;BME280;7060;43.770;4.008;2022-10-16T09:56:30;101525.09;;;20.15;74.84
13974;BME280;7060;43.770;4.008;2022-10-16T09:59:10;101527.38;;;20.26;74.30
13974;BME280;7060;43.770;4.008;2022-10-16T10:01:40;101484.28;;;20.08;74.00
13974;BME280;7060;43.770;4.008;2022-10-16T10:04:09;101524.75;;;20.33;74.14
13974;BME280;7060;43.770;4.008;2022-10-16T10:06:43;101530.81;;;20.35;73.37
13974;BME280;7060;43.770;4.008;2022-10-16T10:09:20;101532.91;;;20.33;73.28
13974;BME280;7060;43.770;4.008;2022-10-16T10:11:53;101472.91;;;19.98;73.20
13974;BME280;7060;43.770;4.008;2022-10-16T10:14:27;101531.47;;;20.37;73.30
13974;BME280;7060;43.770;4.008;2022-10-16T10:17:18;101535.84;;;20.38;72.78
13974;BME280;7060;43.770;4.008;2022-10-16T10:19:50;101539.88;;;20.42;73.26
13974;BME280;7060;43.770;4.008;2022-10-16T10:22:26;101506.97;;;20.30;73.04
13974;BME280;7060;43.770;4.008;2022-10-16T10:24:57;101536.22;;;20.49;73.17
13974;BME280;7060;43.770;4.008;2022-10-16T10:27:34;101511.59;;;20.36;73.08
13974;BME280;7060;43.770;4.008;2022-10-16T10:30:10;101524.59;;;20.55;72.93
13974;BME280;7060;43.770;4.008;2022-10-16T10:32:57;101521.72;;;20.63;73.61
13974;BME280;7060;43.770;4.008;2022-10-16T10:35:42;101510.09;;;20.70;73.55
13974;BME280;7060;43.770;4.008;2022-10-16T10:38:29;101521.25;;;20.75;72.91
13974;BME280;7060;43.770;4.008;2022-10-16T10:41:09;101515.63;;;20.76;72.86
13974;BME280;7060;43.770;4.008;2022-10-16T10:43:52;101520.09;;;20.84;72.68
13974;BME280;7060;43.770;4.008;2022-10-16T10:46:32;101513.63;;;20.85;72.85
13974;BME280;7060;43.770;4.008;2022-10-16T10:49:16;101515.69;;;20.83;72.84
13974;BME280;7060;43.770;4.008;2022-10-16T10:52:02;101513.34;;;20.80;72.77
13974;BME280;7060;43.770;4.008;2022-10-16T10:54:41;101517.38;;;20.84;73.06
13974;BME280;7060;43.770;4.008;2022-10-16T10:57:19;101510.09;;;20.91;72.64
13974;BME280;7060;43.770;4.008;2022-10-16T11:00:10;101514.09;;;20.95;72.73
13974;BME280;7060;43.770;4.008;2022-10-16T11:02:50;101506.53;;;20.90;72.71
13974;BME280;7060;43.770;4.008;2022-10-16T11:05:44;101506.53;;;20.90;72.62
13974;BME280;7060;43.770;4.008;2022-10-16T11:08:17;101499.84;;;20.86;72.88
13974;BME280;7060;43.770;4.008;2022-10-16T11:10:52;101501.44;;;20.81;73.31
13974;BME280;7060;43.770;4.008;2022-10-16T11:13:31;101497.63;;;20.75;73.83
13974;BME280;7060;43.770;4.008;2022-10-16T11:16:06;101483.47;;;20.58;75.12
13974;BME280;7060;43.770;4.008;2022-10-16T11:18:48;101493.88;;;20.76;76.39
13974;BME280;7060;43.770;4.008;2022-10-16T11:21:19;101499.94;;;20.78;78.06
13974;BME280;7060;43.770;4.008;2022-10-16T11:23:57;101499.56;;;20.81;77.80
13974;BME280;7060;43.770;4.008;2022-10-16T11:26:32;101494.78;;;20.83;78.08
13974;BME280;7060;43.770;4.008;2022-10-16T11:29:03;101501.91;;;20.84;77.73
13974;BME280;7060;43.770;4.008;2022-10-16T11:31:37;101494.22;;;20.88;77.66
13974;BME280;7060;43.770;4.008;2022-10-16T11:34:17;101459.97;;;20.72;77.58
13974;BME280;7060;43.770;4.008;2022-10-16T11:36:57;101481.94;;;20.99;77.57
13974;BME280;7060;43.770;4.008;2022-10-16T11:39:29;101483.34;;;21.09;76.84
13974;BME280;7060;43.770;4.008;2022-10-16T11:42:03;101484.19;;;21.16;76.04
13974;BME280;7060;43.770;4.008;2022-10-16T11:44:41;101486.59;;;21.26;76.54
13974;BME280;7060;43.770;4.008;2022-10-16T11:47:30;101489.88;;;21.43;75.57
13974;BME280;7060;43.770;4.008;2022-10-16T11:50:25;101494.03;;;21.45;74.83
13974;BME280;7060;43.770;4.008;2022-10-16T11:53:02;101488.22;;;21.48;74.51
13974;BME280;7060;43.770;4.008;2022-10-16T11:55:35;101487.16;;;21.49;74.38
13974;BME280;7060;43.770;4.008;2022-10-16T11:58:17;101491.56;;;21.50;74.22
13974;BME280;7060;43.770;4.008;2022-10-16T12:00:55;101494.94;;;21.52;74.08
13974;BME280;7060;43.770;4.008;2022-10-16T12:03:29;101497.69;;;21.59;73.89
13974;BME280;7060;43.770;4.008;2022-10-16T12:06:22;101501.72;;;21.63;73.31
13974;BME280;7060;43.770;4.008;2022-10-16T12:08:53;101495.63;;;21.61;73.35
13974;BME280;7060;43.770;4.008;2022-10-16T12:11:32;101467.69;;;21.46;72.60
13974;BME280;7060;43.770;4.008;2022-10-16T12:14:18;101470.19;;;21.47;72.68
13974;BME280;7060;43.770;4.008;2022-10-16T12:16:55;101494.84;;;21.67;72.53
13974;BME280;7060;43.770;4.008;2022-10-16T12:19:26;101501.75;;;21.70;72.56
13974;BME280;7060;43.770;4.008;2022-10-16T12:21:58;101490.44;;;21.73;72.49
13974;BME280;7060;43.770;4.008;2022-10-16T12:24:34;101486.47;;;21.69;72.57
13974;BME280;7060;43.770;4.008;2022-10-16T12:27:04;101467.72;;;21.52;72.59
13974;BME280;7060;43.770;4.008;2022-10-16T12:29:36;101483.13;;;21.73;72.12
13974;BME280;7060;43.770;4.008;2022-10-16T12:32:18;101485.91;;;21.80;72.39
13974;BME280;7060;43.770;4.008;2022-10-16T12:35:18;101481.56;;;21.85;72.18
13974;BME280;7060;43.770;4.008;2022-10-16T12:37:50;101477.84;;;22.00;72.23
13974;BME280;7060;43.770;4.008;2022-10-16T12:40:28;101488.13;;;22.04;70.73
13974;BME280;7060;43.770;4.008;2022-10-16T12:42:58;101482.44;;;21.99;71.07
13974;BME280;7060;43.770;4.008;2022-10-16T12:45:28;101486.22;;;21.98;71.20
13974;BME280;7060;43.770;4.008;2022-10-16T12:47:59;101455.38;;;21.84;71.41
13974;BME280;7060;43.770;4.008;2022-10-16T12:50:33;101479.13;;;22.04;71.35
13974;BME280;7060;43.770;4.008;2022-10-16T12:53:18;101476.59;;;22.02;70.84
13974;BME280;7060;43.770;4.008;2022-10-16T12:55:54;101484.31;;;21.99;70.33
13974;BME280;7060;43.770;4.008;2022-10-16T12:58:39;101471.16;;;21.95;70.63
13974;BME280;7060;43.770;4.008;2022-10-16T13:01:21;101482.22;;;21.94;70.94
13974;BME280;7060;43.770;4.008;2022-10-16T13:04:09;101480.56;;;21.93;70.96
13974;BME280;7060;43.770;4.008;2022-10-16T13:06:46;101482.03;;;21.95;71.23
13974;BME280;7060;43.770;4.008;2022-10-16T13:09:40;101484.34;;;22.05;72.36
13974;BME280;7060;43.770;4.008;2022-10-16T13:12:29;101473.91;;;22.09;70.68
13974;BME280;7060;43.770;4.008;2022-10-16T13:15:24;101477.88;;;22.06;70.55
13974;BME280;7060;43.770;4.008;2022-10-16T13:18:00;101473.03;;;22.02;70.76
13974;BME280;7060;43.770;4.008;2022-10-16T13:20:35;101424.94;;;21.74;70.36
13974;BME280;7060;43.770;4.008;2022-10-16T13:23:13;101472.44;;;22.06;70.46
13974;BME280;7060;43.770;4.008;2022-10-16T13:25:59;101467.63;;;22.08;70.47
13974;BME280;7060;43.770;4.008;2022-10-16T13:28:34;101476.00;;;22.07;69.97
13974;BME280;7060;43.770;4.008;2022-10-16T13:31:04;101470.34;;;22.08;70.45
13974;BME280;7060;43.770;4.008;2022-10-16T13:33:35;101470.16;;;22.16;70.56